createdAt,value
2022-10-12T00:02:08.753Z,7.22
2022-10-12T00:04:36.100Z,5.90
2022-10-12T00:07:02.946Z,3.40
2022-10-12T00:09:29.941Z,8.25
2022-10-12T00:11:56.785Z,5.68
2022-10-12T00:14:23.618Z,3.72
2022-10-12T00:16:50.507Z,2.97
2022-10-12T00:19:19.478Z,6.88
2022-10-12T00:21:46.421Z,9.20
2022-10-12T00:24:13.304Z,5.03
2022-10-12T00:26:40.381Z,14.48
2022-10-12T00:29:07.367Z,3.38
2022-10-12T00:31:34.329Z,4.28
2022-10-12T00:34:03.811Z,7.03
2022-10-12T00:36:34.135Z,12.10
2022-10-12T00:39:03.484Z,4.45
2022-10-12T00:41:35.539Z,8.15
2022-10-12T00:44:02.654Z,5.72
2022-10-12T00:46:34.835Z,3.55
2022-10-12T00:49:16.582Z,6.70
2022-10-12T00:51:49.166Z,3.55
2022-10-12T00:54:24.060Z,3.88
2022-10-12T00:56:53.634Z,4.97
2022-10-12T00:59:32.577Z,4.88
2022-10-12T01:01:59.476Z,5.38
2022-10-12T01:04:27.167Z,5.63
2022-10-12T01:06:54.137Z,5.18
2022-10-12T01:09:21.737Z,6.90
2022-10-12T01:11:49.117Z,4.97
2022-10-12T01:14:17.165Z,5.03
2022-10-12T01:17:17.781Z,3.25
2022-10-12T01:20:18.591Z,3.85
2022-10-12T01:23:11.988Z,7.55
2022-10-12T01:26:06.092Z,6.18
2022-10-12T01:29:12.906Z,8.43
2022-10-12T01:32:11.301Z,3.97
2022-10-12T01:34:53.314Z,4.05
2022-10-12T01:37:30.559Z,8.90
2022-10-12T01:40:08.076Z,2.50
2022-10-12T01:42:40.518Z,7.93
2022-10-12T01:45:18.831Z,5.88
2022-10-12T01:47:52.390Z,2.17
2022-10-12T01:50:22.530Z,7.25
2022-10-12T01:53:36.295Z,3.33
2022-10-12T01:56:26.228Z,3.13
2022-10-12T01:59:20.323Z,5.85
2022-10-12T02:02:01.069Z,7.28
2022-10-12T02:04:38.498Z,5.93
2022-10-12T02:07:17.818Z,3.30
2022-10-12T02:09:45.072Z,3.83
2022-10-12T02:12:18.803Z,8.27
2022-10-12T02:14:51.204Z,3.50
2022-10-12T02:17:22.790Z,3.80
2022-10-12T02:19:56.860Z,3.67
2022-10-12T02:22:34.322Z,3.45
2022-10-12T02:25:06.469Z,1.88
2022-10-12T02:27:36.797Z,5.45
2022-10-12T02:30:04.983Z,3.83
2022-10-12T02:32:36.288Z,5.03
2022-10-12T02:35:10.656Z,2.35
2022-10-12T02:38:34.873Z,5.65
2022-10-12T02:41:25.965Z,3.90
2022-10-12T02:44:01.305Z,3.53
2022-10-12T02:46:31.011Z,8.48
2022-10-12T02:48:59.168Z,3.63
2022-10-12T02:51:29.467Z,4.03
2022-10-12T02:53:56.838Z,2.88
2022-10-12T02:56:24.384Z,7.07
2022-10-12T02:58:51.426Z,7.53
2022-10-12T03:01:18.535Z,1.60
2022-10-12T03:03:46.243Z,3.53
2022-10-12T03:06:13.999Z,4.60
2022-10-12T03:08:40.917Z,7.60
2022-10-12T03:11:12.472Z,5.80
2022-10-12T03:13:39.809Z,5.15
2022-10-12T03:16:10.289Z,3.67
2022-10-12T03:18:38.306Z,5.38
2022-10-12T03:21:05.714Z,3.85
2022-10-12T03:23:33.016Z,1.88
2022-10-12T03:25:59.954Z,3.33
2022-10-12T03:28:26.878Z,3.10
2022-10-12T03:30:53.804Z,2.85
2022-10-12T03:33:21.025Z,3.00
2022-10-12T03:35:48.610Z,3.55
2022-10-12T03:38:16.702Z,3.55
2022-10-12T03:40:44.372Z,3.50
2022-10-12T03:43:12.020Z,3.63
2022-10-12T03:45:39.643Z,5.53
2022-10-12T03:48:07.221Z,4.25
2022-10-12T03:50:35.557Z,4.63
2022-10-12T03:53:05.175Z,5.05
2022-10-12T03:55:32.981Z,2.25
2022-10-12T03:58:00.114Z,4.45
2022-10-12T04:00:28.042Z,4.05
2022-10-12T04:02:55.230Z,5.25
2022-10-12T04:05:22.199Z,3.33
2022-10-12T04:07:49.043Z,3.08
2022-10-12T04:10:16.080Z,2.60
2022-10-12T04:12:43.087Z,2.50
2022-10-12T04:15:11.371Z,7.28
2022-10-12T04:17:38.651Z,2.28
2022-10-12T04:20:06.893Z,3.88
2022-10-12T04:22:34.370Z,1.50
2022-10-12T04:25:01.329Z,1.67
2022-10-12T04:27:28.341Z,3.90
2022-10-12T04:29:55.207Z,2.10
2022-10-12T04:32:22.087Z,7.95
2022-10-12T04:34:48.957Z,3.95
2022-10-12T04:37:16.079Z,7.18
2022-10-12T04:39:42.948Z,3.70
2022-10-12T04:42:09.834Z,5.10
2022-10-12T04:44:36.913Z,2.58
2022-10-12T04:47:03.839Z,1.90
2022-10-12T04:49:30.903Z,2.55
2022-10-12T04:51:57.942Z,5.80
2022-10-12T04:54:24.889Z,2.28
2022-10-12T04:56:51.925Z,3.58
2022-10-12T04:59:18.873Z,2.03
2022-10-12T05:01:45.812Z,4.70
2022-10-12T05:04:12.769Z,5.90
2022-10-12T05:06:39.612Z,6.97
2022-10-12T05:09:06.826Z,3.53
2022-10-12T05:11:33.804Z,3.13
2022-10-12T05:14:00.905Z,2.63
2022-10-12T05:16:27.916Z,5.00
2022-10-12T05:18:54.801Z,3.22
2022-10-12T05:21:21.674Z,2.50
2022-10-12T05:23:52.471Z,4.28
2022-10-12T05:26:19.953Z,5.78
2022-10-12T05:28:46.969Z,3.50
2022-10-12T05:31:14.373Z,7.22
2022-10-12T05:33:41.699Z,2.30
2022-10-12T05:36:09.207Z,2.45
2022-10-12T05:38:36.141Z,1.50
2022-10-12T05:41:03.183Z,4.10
2022-10-12T05:43:30.131Z,1.92
2022-10-12T05:45:57.145Z,5.03
2022-10-12T05:48:24.360Z,4.22
2022-10-12T05:50:54.791Z,8.80
2022-10-12T05:53:22.908Z,3.97
2022-10-12T05:56:00.490Z,5.90
2022-10-12T05:58:29.860Z,2.13
2022-10-12T06:01:06.492Z,4.07
2022-10-12T06:03:35.107Z,3.75
2022-10-12T06:06:03.419Z,1.00
2022-10-12T06:08:31.939Z,6.55
2022-10-12T06:10:59.073Z,2.60
2022-10-12T06:13:26.769Z,7.88
2022-10-12T06:15:53.700Z,3.83
2022-10-12T06:18:21.040Z,6.68
2022-10-12T06:21:08.782Z,4.72
2022-10-12T06:23:40.616Z,8.45
2022-10-12T06:26:07.694Z,2.67
2022-10-12T06:28:34.705Z,3.83
2022-10-12T06:31:01.733Z,2.45
2022-10-12T06:33:29.254Z,4.95
2022-10-12T06:35:56.479Z,5.32
2022-10-12T06:38:23.851Z,4.45
2022-10-12T06:40:50.777Z,5.35
2022-10-12T06:43:17.688Z,5.18
2022-10-12T06:45:44.543Z,5.43
2022-10-12T06:48:16.199Z,5.20
2022-10-12T06:50:46.695Z,4.05
2022-10-12T06:53:16.374Z,6.55
2022-10-12T06:55:43.309Z,5.97
2022-10-12T06:58:10.225Z,4.40
2022-10-12T07:00:37.677Z,3.25
2022-10-12T07:03:05.113Z,4.95
2022-10-12T07:05:31.976Z,4.20
2022-10-12T07:07:58.874Z,4.15
2022-10-12T07:10:25.861Z,2.90
2022-10-12T07:12:52.798Z,4.95
2022-10-12T07:15:19.681Z,7.18
2022-10-12T07:17:46.588Z,5.07
2022-10-12T07:20:13.655Z,2.13
2022-10-12T07:22:40.597Z,5.57
2022-10-12T07:25:08.026Z,13.45
2022-10-12T07:27:35.264Z,10.98
2022-10-12T07:30:02.662Z,7.97
2022-10-12T07:32:29.504Z,5.38
2022-10-12T07:34:57.246Z,4.97
2022-10-12T07:37:24.140Z,8.02
2022-10-12T07:39:56.912Z,5.13
2022-10-12T07:42:25.329Z,8.82
2022-10-12T07:44:52.372Z,8.93
2022-10-12T07:47:19.611Z,10.65
2022-10-12T07:49:46.716Z,6.07
2022-10-12T07:52:13.672Z,9.07
2022-10-12T07:54:40.502Z,7.93
2022-10-12T07:57:08.555Z,7.53
2022-10-12T07:59:35.414Z,6.28
2022-10-12T08:02:02.370Z,13.13
2022-10-12T08:04:29.338Z,12.35
2022-10-12T08:06:56.251Z,11.80
2022-10-12T08:09:23.103Z,7.75
2022-10-12T08:11:49.943Z,13.55
2022-10-12T08:14:17.449Z,12.43
2022-10-12T08:16:45.329Z,13.65
2022-10-12T08:19:12.390Z,16.95
2022-10-12T08:21:39.707Z,9.95
2022-10-12T08:24:07.023Z,11.27
2022-10-12T08:26:33.930Z,12.70
2022-10-12T08:29:02.955Z,11.13
2022-10-12T08:31:30.128Z,12.90
2022-10-12T08:33:58.506Z,16.08
2022-10-12T08:36:25.449Z,13.23
2022-10-12T08:38:56.935Z,13.68
2022-10-12T08:41:52.345Z,12.32
2022-10-12T08:44:28.354Z,18.48
2022-10-12T08:47:13.756Z,11.38
2022-10-12T08:49:44.187Z,12.23
2022-10-12T08:52:41.869Z,11.75
2022-10-12T08:55:42.316Z,12.70
2022-10-12T08:58:31.812Z,12.77
2022-10-12T09:01:16.501Z,14.98
2022-10-12T09:04:23.842Z,13.48
2022-10-12T09:07:25.848Z,13.32
2022-10-12T09:10:26.208Z,12.38
2022-10-12T09:13:01.537Z,13.18
2022-10-12T09:15:33.837Z,13.70
2022-10-12T09:18:02.851Z,18.27
2022-10-12T09:21:02.673Z,15.98
2022-10-12T09:23:39.344Z,10.18
2022-10-12T09:26:20.062Z,13.35
2022-10-12T09:28:56.280Z,12.15
2022-10-12T09:31:57.505Z,8.02
2022-10-12T09:34:25.195Z,13.82
2022-10-12T09:36:52.184Z,13.52
2022-10-12T09:39:30.222Z,16.33
2022-10-12T09:41:57.612Z,11.95
2022-10-12T09:44:40.470Z,9.68
2022-10-12T09:47:28.423Z,15.32
2022-10-12T09:50:05.360Z,9.90
2022-10-12T09:52:43.561Z,15.95
2022-10-12T09:55:14.598Z,10.25
2022-10-12T09:57:44.938Z,12.02
2022-10-12T10:00:35.963Z,14.20
2022-10-12T10:03:03.953Z,9.68
2022-10-12T10:05:37.153Z,12.00
2022-10-12T10:08:23.986Z,12.68
2022-10-12T10:10:54.028Z,11.77
2022-10-12T10:13:23.482Z,13.85
2022-10-12T10:16:09.704Z,12.00
2022-10-12T10:18:43.173Z,14.02
2022-10-12T10:21:14.417Z,11.65
2022-10-12T10:23:56.514Z,15.85
2022-10-12T10:26:25.122Z,13.10
2022-10-12T10:29:34.593Z,10.52
2022-10-12T10:32:29.542Z,10.60
2022-10-12T10:35:24.517Z,10.60
2022-10-12T10:37:59.108Z,18.52
2022-10-12T10:40:29.596Z,10.98
2022-10-12T10:43:05.619Z,10.18
2022-10-12T10:45:49.605Z,10.65
2022-10-12T10:48:21.029Z,13.75
2022-10-12T10:51:01.748Z,13.20
2022-10-12T10:53:45.401Z,9.32
2022-10-12T10:56:25.443Z,7.55
2022-10-12T10:58:57.249Z,7.68
2022-10-12T11:01:27.485Z,9.45
2022-10-12T11:04:03.666Z,7.72
2022-10-12T11:06:41.109Z,8.75
2022-10-12T11:09:41.743Z,8.40
2022-10-12T11:12:43.424Z,11.10
2022-10-12T11:15:17.315Z,9.93
2022-10-12T11:17:50.752Z,9.57
2022-10-12T11:20:51.337Z,7.47
2022-10-12T11:23:35.654Z,8.50
2022-10-12T11:26:30.060Z,7.53
2022-10-12T11:29:00.139Z,6.38
2022-10-12T11:31:34.808Z,7.15
2022-10-12T11:34:08.912Z,8.52
2022-10-12T11:36:55.894Z,8.52
2022-10-12T11:39:43.681Z,7.45
2022-10-12T11:42:22.282Z,8.98
2022-10-12T11:44:50.897Z,7.28
2022-10-12T11:47:39.248Z,7.43
2022-10-12T11:50:32.608Z,7.47
2022-10-12T11:53:04.208Z,7.80
2022-10-12T11:55:52.806Z,6.65
2022-10-12T11:58:42.132Z,2.03
2022-10-12T12:01:34.246Z,8.43
2022-10-12T12:04:42.804Z,6.65
2022-10-12T12:07:53.454Z,7.40
2022-10-12T12:10:31.813Z,6.50
2022-10-12T12:13:14.755Z,7.47
2022-10-12T12:15:49.772Z,11.27
2022-10-12T12:18:24.629Z,10.68
2022-10-12T12:21:10.964Z,10.27
2022-10-12T12:23:43.765Z,13.68
2022-10-12T12:26:16.246Z,9.07
2022-10-12T12:28:50.706Z,11.48
2022-10-12T12:31:23.817Z,8.55
2022-10-12T12:34:06.609Z,17.50
2022-10-12T12:36:37.913Z,8.73
2022-10-12T12:39:09.070Z,11.32
2022-10-12T12:42:18.509Z,14.63
2022-10-12T12:44:45.694Z,18.92
2022-10-12T12:47:43.475Z,10.80
2022-10-12T12:50:31.273Z,9.57
2022-10-12T12:53:28.354Z,11.25
2022-10-12T12:56:12.551Z,10.63
2022-10-12T12:59:18.040Z,7.07
2022-10-12T13:02:01.153Z,12.32
2022-10-12T13:04:38.922Z,9.82
2022-10-12T13:07:35.453Z,8.77
2022-10-12T13:13:06.548Z,17.83
2022-10-12T13:16:06.889Z,15.57
2022-10-12T13:18:58.112Z,18.45
2022-10-12T13:21:37.407Z,10.38
2022-10-12T13:24:27.806Z,11.35
2022-10-12T13:27:15.337Z,16.75
2022-10-12T13:29:57.294Z,17.30
2022-10-12T13:32:42.474Z,14.57
2022-10-12T13:35:22.492Z,12.40
2022-10-12T13:38:13.837Z,12.75
2022-10-12T13:40:54.712Z,13.05
2022-10-12T13:43:33.528Z,10.00
2022-10-12T13:46:00.983Z,12.82
2022-10-12T13:48:57.643Z,12.23
2022-10-12T13:51:25.068Z,11.05
2022-10-12T13:53:52.299Z,22.42
2022-10-12T13:56:25.486Z,12.73
2022-10-12T13:58:58.269Z,17.13
2022-10-12T14:01:25.386Z,10.75
2022-10-12T14:03:53.078Z,12.20
2022-10-12T14:06:35.338Z,18.20
2022-10-12T14:09:14.147Z,13.02
2022-10-12T14:11:42.617Z,16.52
2022-10-12T14:14:29.169Z,14.38
2022-10-12T14:16:56.130Z,13.38
2022-10-12T14:19:48.890Z,14.60
2022-10-12T14:22:33.195Z,17.42
2022-10-12T14:25:19.448Z,14.68
2022-10-12T14:27:46.777Z,13.35
2022-10-12T14:30:29.459Z,8.25
2022-10-12T14:33:21.778Z,11.38
2022-10-12T14:35:51.131Z,10.45
2022-10-12T14:38:46.012Z,10.40
2022-10-12T14:41:35.139Z,18.02
2022-10-12T14:44:18.494Z,15.18
2022-10-12T14:47:08.758Z,13.77
2022-10-12T14:49:45.579Z,8.13
2022-10-12T14:52:44.769Z,11.27
2022-10-12T14:55:21.648Z,12.65
2022-10-12T14:57:49.332Z,14.00
2022-10-12T15:00:20.247Z,11.40
2022-10-12T15:02:47.810Z,11.98
2022-10-12T15:05:21.278Z,8.60
2022-10-12T15:07:49.462Z,13.18
2022-10-12T15:10:20.896Z,13.05
2022-10-12T15:12:48.606Z,22.65
2022-10-12T15:15:42.774Z,18.20
2022-10-12T15:18:10.072Z,19.75
2022-10-12T15:20:37.832Z,19.20
2022-10-12T15:23:05.816Z,27.45
2022-10-12T15:25:35.461Z,67.80
2022-10-12T15:28:04.368Z,40.47
2022-10-12T15:30:32.589Z,35.67
2022-10-12T15:33:00.365Z,22.20
2022-10-12T15:35:30.726Z,26.48
2022-10-12T15:37:57.702Z,19.23
2022-10-12T15:40:27.776Z,43.13
2022-10-12T15:42:55.338Z,35.00
2022-10-12T15:45:31.328Z,21.55
2022-10-12T15:47:58.587Z,16.58
2022-10-12T15:50:30.097Z,16.48
2022-10-12T15:52:57.716Z,10.43
2022-10-12T15:55:29.168Z,17.02
2022-10-12T15:57:57.128Z,13.77
2022-10-12T16:00:28.068Z,13.70
2022-10-12T16:02:56.483Z,11.02
2022-10-12T16:05:33.314Z,14.02
2022-10-12T16:08:02.118Z,17.65
2022-10-12T16:10:37.080Z,14.70
2022-10-12T16:13:08.086Z,12.60
2022-10-12T16:15:36.573Z,18.25
2022-10-12T16:18:05.166Z,13.13
2022-10-12T16:20:37.112Z,14.90
2022-10-12T16:23:07.171Z,18.35
2022-10-12T16:25:35.236Z,26.98
2022-10-12T16:28:02.131Z,18.55
2022-10-12T16:30:29.118Z,11.13
2022-10-12T16:32:56.204Z,13.15
2022-10-12T16:35:23.422Z,12.57
2022-10-12T16:37:50.713Z,15.20
2022-10-12T16:40:17.900Z,11.18
2022-10-12T16:42:44.960Z,11.50
2022-10-12T16:45:13.088Z,11.95
2022-10-12T16:47:42.902Z,14.52
2022-10-12T16:50:10.526Z,19.17
2022-10-12T16:52:37.779Z,15.35
2022-10-12T16:55:06.436Z,11.93
2022-10-12T16:57:33.456Z,9.50
2022-10-12T17:00:00.779Z,11.18
2022-10-12T17:02:27.895Z,13.40
2022-10-12T17:04:55.138Z,9.10
2022-10-12T17:07:22.266Z,13.77
2022-10-12T17:09:49.121Z,13.25
2022-10-12T17:12:16.185Z,12.98
2022-10-12T17:14:43.522Z,11.30
2022-10-12T17:17:10.371Z,16.80
2022-10-12T17:19:39.846Z,13.00
2022-10-12T17:22:10.146Z,11.40
2022-10-12T17:24:39.874Z,12.43
2022-10-12T17:27:09.264Z,9.13
2022-10-12T17:29:37.111Z,11.82
2022-10-12T17:32:04.566Z,17.23
2022-10-12T17:34:39.610Z,16.42
2022-10-12T17:37:08.041Z,10.45
2022-10-12T17:39:42.617Z,13.88
2022-10-12T17:42:10.686Z,12.85
2022-10-12T17:44:38.003Z,8.07
2022-10-12T17:47:04.978Z,10.38
2022-10-12T17:49:31.941Z,11.90
2022-10-12T17:51:58.999Z,11.70
2022-10-12T17:54:29.461Z,11.80
2022-10-12T17:56:58.169Z,11.23
2022-10-12T17:59:26.166Z,9.63
2022-10-12T18:01:53.478Z,14.25
2022-10-12T18:04:21.262Z,16.23
2022-10-12T18:06:48.443Z,8.23
2022-10-12T18:09:15.485Z,10.68
2022-10-12T18:11:44.246Z,12.95
2022-10-12T18:14:11.826Z,9.70
2022-10-12T18:16:38.750Z,14.82
2022-10-12T18:19:09.597Z,13.35
2022-10-12T18:21:37.409Z,10.90
2022-10-12T18:24:12.338Z,12.90
2022-10-12T18:26:43.946Z,10.07
2022-10-12T18:29:11.034Z,13.80
2022-10-12T18:31:38.214Z,14.55
2022-10-12T18:34:06.534Z,8.98
2022-10-12T18:36:33.425Z,12.43
2022-10-12T18:39:02.360Z,10.30
2022-10-12T18:41:29.535Z,11.00
2022-10-12T18:44:01.193Z,8.18
2022-10-12T18:46:32.894Z,8.15
2022-10-12T18:49:04.860Z,8.77
2022-10-12T18:51:34.778Z,15.38
2022-10-12T18:54:03.763Z,8.18
2022-10-12T18:56:33.201Z,8.13
2022-10-12T18:59:01.676Z,6.55
2022-10-12T19:01:30.693Z,9.02
2022-10-12T19:04:00.474Z,13.88
2022-10-12T19:06:39.613Z,7.95
2022-10-12T19:09:06.536Z,5.78
2022-10-12T19:11:34.580Z,12.82
2022-10-12T19:14:07.153Z,21.42
2022-10-12T19:16:35.037Z,7.22
2022-10-12T19:19:11.862Z,14.88
2022-10-12T19:21:39.862Z,18.00
2022-10-12T19:24:09.085Z,9.20
2022-10-12T19:26:36.187Z,10.00
2022-10-12T19:29:04.145Z,10.85
2022-10-12T19:31:37.695Z,10.25
2022-10-12T19:34:08.871Z,15.57
2022-10-12T19:36:36.883Z,8.57
2022-10-12T19:39:11.790Z,10.40
2022-10-12T19:41:38.713Z,10.70
2022-10-12T19:44:05.774Z,5.43
2022-10-12T19:46:32.803Z,11.98
2022-10-12T19:49:00.602Z,14.93
2022-10-12T19:51:30.757Z,9.85
2022-10-12T19:54:01.230Z,13.35
2022-10-12T19:56:28.928Z,7.28
2022-10-12T19:58:57.728Z,12.70
2022-10-12T20:01:34.937Z,9.95
2022-10-12T20:04:08.286Z,5.90
2022-10-12T20:06:36.239Z,6.55
2022-10-12T20:09:05.000Z,14.57
2022-10-12T20:11:32.466Z,6.47
2022-10-12T20:13:59.615Z,9.07
2022-10-12T20:16:30.097Z,6.05
2022-10-12T20:19:01.169Z,8.65
2022-10-12T20:21:28.086Z,7.68
2022-10-12T20:23:55.032Z,8.27
2022-10-12T20:26:24.728Z,8.60
2022-10-12T20:28:54.416Z,7.35
2022-10-12T20:31:27.615Z,6.93
2022-10-12T20:33:58.373Z,4.22
2022-10-12T20:36:30.625Z,14.98
2022-10-12T20:38:59.157Z,9.60
2022-10-12T20:41:27.703Z,14.95
2022-10-12T20:43:57.206Z,5.88
2022-10-12T20:46:25.365Z,8.40
2022-10-12T20:48:58.645Z,8.63
2022-10-12T20:51:35.940Z,8.88
2022-10-12T20:54:05.687Z,6.30
2022-10-12T20:56:33.832Z,10.20
2022-10-12T20:59:01.042Z,8.63
2022-10-12T21:01:28.780Z,5.30
2022-10-12T21:03:56.268Z,11.60
2022-10-12T21:06:23.861Z,12.90
2022-10-12T21:08:56.407Z,11.43
2022-10-12T21:11:24.494Z,10.65
2022-10-12T21:13:51.726Z,9.27
2022-10-12T21:16:19.031Z,11.77
2022-10-12T21:18:46.007Z,10.65
2022-10-12T21:21:19.221Z,10.02
2022-10-12T21:23:57.204Z,7.60
2022-10-12T21:26:27.217Z,10.95
2022-10-12T21:28:54.467Z,16.30
2022-10-12T21:31:22.257Z,14.35
2022-10-12T21:33:49.647Z,12.45
2022-10-12T21:36:26.350Z,16.30
2022-10-12T21:38:54.109Z,11.05
2022-10-12T21:41:25.363Z,15.55
2022-10-12T21:43:53.235Z,8.93
2022-10-12T21:46:27.410Z,8.80
2022-10-12T21:48:54.700Z,9.75
2022-10-12T21:51:23.082Z,8.82
2022-10-12T21:53:51.003Z,10.80
2022-10-12T21:56:24.748Z,10.93
2022-10-12T21:58:53.651Z,12.90
2022-10-12T22:01:23.933Z,8.75
2022-10-12T22:03:56.689Z,9.43
2022-10-12T22:06:26.904Z,9.13
2022-10-12T22:09:21.739Z,8.80
2022-10-12T22:11:49.769Z,12.32
2022-10-12T22:14:19.173Z,10.48
2022-10-12T22:16:46.300Z,15.15
2022-10-12T22:19:18.646Z,10.52
2022-10-12T22:21:48.462Z,6.63
2022-10-12T22:24:15.850Z,22.88
2022-10-12T22:26:43.261Z,14.45
2022-10-12T22:29:10.559Z,10.18
2022-10-12T22:31:40.410Z,5.80
2022-10-12T22:34:08.298Z,11.20
2022-10-12T22:36:36.662Z,8.68
2022-10-12T22:39:04.008Z,10.73
2022-10-12T22:41:31.317Z,11.18
2022-10-12T22:43:58.696Z,10.90
2022-10-12T22:46:26.641Z,10.02
2022-10-12T22:48:54.198Z,10.80
2022-10-12T22:51:33.604Z,11.98
2022-10-12T22:54:01.646Z,10.05
2022-10-12T22:56:29.323Z,6.97
2022-10-12T22:59:02.549Z,9.93
2022-10-12T23:01:30.121Z,19.50
2022-10-12T23:03:57.190Z,19.90
2022-10-12T23:06:24.356Z,22.05
2022-10-12T23:08:52.056Z,18.35
2022-10-12T23:11:26.008Z,20.73
2022-10-12T23:13:54.362Z,17.40
2022-10-12T23:16:31.333Z,17.88
2022-10-12T23:19:01.841Z,14.32
2022-10-12T23:21:30.911Z,15.63
2022-10-12T23:24:00.570Z,21.63
2022-10-12T23:26:29.344Z,12.82
2022-10-12T23:28:56.826Z,17.05
2022-10-12T23:31:27.602Z,23.17
2022-10-12T23:34:00.712Z,16.77
2022-10-12T23:36:28.690Z,17.23
2022-10-12T23:38:55.587Z,15.13
2022-10-12T23:41:22.587Z,15.23
2022-10-12T23:43:49.697Z,17.05
2022-10-12T23:46:16.750Z,18.30
2022-10-12T23:48:43.650Z,15.55
2022-10-12T23:51:10.576Z,13.25
2022-10-12T23:53:38.517Z,19.20
2022-10-12T23:56:06.889Z,15.80
2022-10-12T23:58:34.297Z,15.45
